createdAt,value
2023-01-08T00:02:17.941Z,18.28
2023-01-08T00:04:44.817Z,18.25
2023-01-08T00:07:11.448Z,18.20
2023-01-08T00:09:38.336Z,18.18
2023-01-08T00:12:04.947Z,18.16
2023-01-08T00:14:31.631Z,18.14
2023-01-08T00:16:58.651Z,18.12
2023-01-08T00:19:25.513Z,18.09
2023-01-08T00:21:52.208Z,18.07
2023-01-08T00:24:18.744Z,18.03
2023-01-08T00:26:45.975Z,18.01
2023-01-08T00:29:12.393Z,17.99
2023-01-08T00:31:39.383Z,17.96
2023-01-08T00:34:05.989Z,17.92
2023-01-08T00:36:32.625Z,17.92
2023-01-08T00:38:59.052Z,17.90
2023-01-08T00:41:25.509Z,17.87
2023-01-08T00:43:52.154Z,17.84
2023-01-08T00:46:19.284Z,17.83
2023-01-08T00:48:46.781Z,17.81
2023-01-08T00:51:13.367Z,17.81
2023-01-08T00:53:39.977Z,17.77
2023-01-08T00:56:07.133Z,17.75
2023-01-08T00:58:33.834Z,17.73
2023-01-08T01:01:00.433Z,17.70
2023-01-08T01:03:27.176Z,17.70
2023-01-08T01:05:53.687Z,17.69
2023-01-08T01:08:20.079Z,17.66
2023-01-08T01:10:46.547Z,17.64
2023-01-08T01:13:13.430Z,17.62
2023-01-08T01:15:39.919Z,17.60
2023-01-08T01:18:07.233Z,17.59
2023-01-08T01:20:33.673Z,17.56
2023-01-08T01:23:00.339Z,17.54
2023-01-08T01:25:27.350Z,17.53
2023-01-08T01:27:54.250Z,17.51
2023-01-08T01:30:21.030Z,17.49
2023-01-08T01:32:47.727Z,17.47
2023-01-08T01:35:14.113Z,17.46
2023-01-08T01:37:41.073Z,17.44
2023-01-08T01:40:08.796Z,17.43
2023-01-08T01:42:36.126Z,17.42
2023-01-08T01:45:03.009Z,17.40
2023-01-08T01:47:29.677Z,17.37
2023-01-08T01:49:56.061Z,17.37
2023-01-08T01:52:22.728Z,17.35
2023-01-08T01:54:49.178Z,17.35
2023-01-08T01:57:15.820Z,17.34
2023-01-08T01:59:42.351Z,17.30
2023-01-08T02:02:08.988Z,17.29
2023-01-08T02:04:36.217Z,17.26
2023-01-08T02:07:02.832Z,17.23
2023-01-08T02:09:30.826Z,17.23
2023-01-08T02:11:57.506Z,17.22
2023-01-08T02:14:24.414Z,17.21
2023-01-08T02:16:50.853Z,17.21
2023-01-08T02:19:17.870Z,17.20
2023-01-08T02:21:44.612Z,17.18
2023-01-08T02:24:11.200Z,17.15
2023-01-08T02:26:37.947Z,17.14
2023-01-08T02:29:04.658Z,17.14
2023-01-08T02:31:31.205Z,17.13
2023-01-08T02:33:57.852Z,17.13
2023-01-08T02:36:24.381Z,17.11
2023-01-08T02:38:50.921Z,17.10
2023-01-08T02:41:17.194Z,17.11
2023-01-08T02:43:44.150Z,17.09
2023-01-08T02:46:10.530Z,17.05
2023-01-08T02:48:36.969Z,17.06
2023-01-08T02:51:03.482Z,17.05
2023-01-08T02:53:30.177Z,17.05
2023-01-08T02:55:56.778Z,17.04
2023-01-08T02:58:23.491Z,17.04
2023-01-08T03:00:50.150Z,17.03
2023-01-08T03:03:16.960Z,17.03
2023-01-08T03:05:43.319Z,17.01
2023-01-08T03:08:09.688Z,17.00
2023-01-08T03:10:36.996Z,17.00
2023-01-08T03:13:03.484Z,16.97
2023-01-08T03:15:30.383Z,16.96
2023-01-08T03:17:57.999Z,16.97
2023-01-08T03:20:25.229Z,16.97
2023-01-08T03:22:52.203Z,16.98
2023-01-08T03:25:19.234Z,17.00
2023-01-08T03:27:46.225Z,17.00
2023-01-08T03:30:12.564Z,16.99
2023-01-08T03:32:39.388Z,16.98
2023-01-08T03:35:05.802Z,16.96
2023-01-08T03:37:32.649Z,16.97
2023-01-08T03:39:59.277Z,16.97
2023-01-08T03:42:26.105Z,16.97
2023-01-08T03:44:52.513Z,16.98
2023-01-08T03:47:18.836Z,16.97
2023-01-08T03:49:45.184Z,16.97
2023-01-08T03:52:11.573Z,16.96
2023-01-08T03:54:38.032Z,16.95
2023-01-08T03:57:04.679Z,16.94
2023-01-08T03:59:31.148Z,16.92
2023-01-08T04:01:57.784Z,16.91
2023-01-08T04:04:25.945Z,16.90
2023-01-08T04:06:53.116Z,16.89
2023-01-08T04:09:20.999Z,16.89
2023-01-08T04:11:48.387Z,16.88
2023-01-08T04:14:16.808Z,16.86
2023-01-08T04:16:43.705Z,16.86
2023-01-08T04:19:12.095Z,16.86
2023-01-08T04:21:39.733Z,16.84
2023-01-08T04:24:07.264Z,16.84
2023-01-08T04:26:34.477Z,16.82
2023-01-08T04:29:02.234Z,16.81
2023-01-08T04:31:29.875Z,16.78
2023-01-08T04:33:57.002Z,16.77
2023-01-08T04:36:23.738Z,16.77
2023-01-08T04:38:50.442Z,16.76
2023-01-08T04:41:17.043Z,16.77
2023-01-08T04:43:43.745Z,16.73
2023-01-08T04:46:10.271Z,16.73
2023-01-08T04:48:36.913Z,16.73
2023-01-08T04:51:04.085Z,16.73
2023-01-08T04:53:30.450Z,16.70
2023-01-08T04:55:57.410Z,16.69
2023-01-08T04:58:24.167Z,16.68
2023-01-08T05:00:50.583Z,16.66
2023-01-08T05:03:17.460Z,16.66
2023-01-08T05:05:44.580Z,16.64
2023-01-08T05:08:11.182Z,16.64
2023-01-08T05:10:37.605Z,16.64
2023-01-08T05:13:04.616Z,16.62
2023-01-08T05:15:31.044Z,16.62
2023-01-08T05:17:57.777Z,16.64
2023-01-08T05:20:25.235Z,16.61
2023-01-08T05:22:52.197Z,16.61
2023-01-08T05:25:18.823Z,16.60
2023-01-08T05:27:45.772Z,16.59
2023-01-08T05:30:12.076Z,16.59
2023-01-08T05:32:38.931Z,16.58
2023-01-08T05:35:06.216Z,16.57
2023-01-08T05:37:32.577Z,16.56
2023-01-08T05:39:59.678Z,16.54
2023-01-08T05:42:26.201Z,16.53
2023-01-08T05:44:52.575Z,16.52
2023-01-08T05:47:19.353Z,16.52
2023-01-08T05:49:45.919Z,16.52
2023-01-08T05:52:12.737Z,16.50
2023-01-08T05:54:39.668Z,16.49
2023-01-08T05:57:06.711Z,16.49
2023-01-08T05:59:33.455Z,16.49
2023-01-08T06:02:00.225Z,16.49
2023-01-08T06:04:26.846Z,16.48
2023-01-08T06:06:53.596Z,16.48
2023-01-08T06:09:19.946Z,16.45
2023-01-08T06:11:46.904Z,16.46
2023-01-08T06:14:13.506Z,16.45
2023-01-08T06:16:39.861Z,16.44
2023-01-08T06:19:06.282Z,16.44
2023-01-08T06:21:32.840Z,16.42
2023-01-08T06:23:59.166Z,16.41
2023-01-08T06:26:25.574Z,16.41
2023-01-08T06:28:52.000Z,16.40
2023-01-08T06:31:18.458Z,16.41
2023-01-08T06:33:45.267Z,16.40
2023-01-08T06:36:11.785Z,16.41
2023-01-08T06:38:38.568Z,16.40
2023-01-08T06:41:05.196Z,16.38
2023-01-08T06:43:31.738Z,16.38
2023-01-08T06:45:58.293Z,16.37
2023-01-08T06:48:25.402Z,16.36
2023-01-08T06:50:52.441Z,16.36
2023-01-08T06:53:18.893Z,16.35
2023-01-08T06:55:45.434Z,16.33
2023-01-08T06:58:11.786Z,16.33
2023-01-08T07:00:38.120Z,16.33
2023-01-08T07:03:04.811Z,16.33
2023-01-08T07:05:31.637Z,16.33
2023-01-08T07:07:58.339Z,16.31
2023-01-08T07:10:25.127Z,16.31
2023-01-08T07:12:51.583Z,16.30
2023-01-08T07:15:18.296Z,16.30
2023-01-08T07:17:44.807Z,16.30
2023-01-08T07:20:11.166Z,16.28
2023-01-08T07:22:37.563Z,16.27
2023-01-08T07:25:03.980Z,16.28
2023-01-08T07:27:30.463Z,16.27
2023-01-08T07:29:57.001Z,16.27
2023-01-08T07:32:23.497Z,16.26
2023-01-08T07:34:50.156Z,16.26
2023-01-08T07:37:16.655Z,16.23
2023-01-08T07:39:43.196Z,16.25
2023-01-08T07:42:10.081Z,16.23
2023-01-08T07:44:36.721Z,16.22
2023-01-08T07:47:03.868Z,16.23
2023-01-08T07:49:30.454Z,16.22
2023-01-08T07:51:57.535Z,16.21
2023-01-08T07:54:24.506Z,16.19
2023-01-08T07:56:51.361Z,16.19
2023-01-08T07:59:17.977Z,16.18
2023-01-08T08:01:44.652Z,16.19
2023-01-08T08:04:11.278Z,16.17
2023-01-08T08:06:37.820Z,16.16
2023-01-08T08:09:04.622Z,16.16
2023-01-08T08:11:31.062Z,16.14
2023-01-08T08:13:58.177Z,16.14
2023-01-08T08:16:24.779Z,16.14
2023-01-08T08:18:51.265Z,16.13
2023-01-08T08:21:18.094Z,16.13
2023-01-08T08:23:44.745Z,16.14
2023-01-08T08:26:11.561Z,16.12
2023-01-08T08:28:38.314Z,16.10
2023-01-08T08:31:04.651Z,16.09
2023-01-08T08:33:31.723Z,16.09
2023-01-08T08:35:58.291Z,16.08
2023-01-08T08:38:24.669Z,16.07
2023-01-08T08:40:51.818Z,16.06
2023-01-08T08:43:18.532Z,16.06
2023-01-08T08:45:46.241Z,16.05
2023-01-08T08:48:13.399Z,16.03
2023-01-08T08:50:39.803Z,16.03
2023-01-08T08:53:06.322Z,16.03
2023-01-08T08:55:32.848Z,16.01
2023-01-08T08:57:59.688Z,15.97
2023-01-08T09:00:26.467Z,15.92
2023-01-08T09:02:53.419Z,15.81
2023-01-08T09:05:19.959Z,15.76
2023-01-08T09:07:46.720Z,15.76
2023-01-08T09:10:13.066Z,15.85
2023-01-08T09:12:39.521Z,15.99
2023-01-08T09:15:06.573Z,16.13
2023-01-08T09:17:33.331Z,16.28
2023-01-08T09:20:00.313Z,16.43
2023-01-08T09:22:27.111Z,16.55
2023-01-08T09:24:53.456Z,16.67
2023-01-08T09:27:19.978Z,16.80
2023-01-08T09:29:46.969Z,16.92
2023-01-08T09:32:13.645Z,17.01
2023-01-08T09:34:39.896Z,17.12
2023-01-08T09:37:06.387Z,17.21
2023-01-08T09:39:33.653Z,17.28
2023-01-08T09:42:00.311Z,17.33
2023-01-08T09:44:26.902Z,17.26
2023-01-08T09:46:53.839Z,17.20
2023-01-08T09:49:20.505Z,17.21
2023-01-08T09:51:48.467Z,17.14
2023-01-08T09:54:15.324Z,17.08
2023-01-08T09:56:41.670Z,17.13
2023-01-08T09:59:08.076Z,17.11
2023-01-08T10:01:34.657Z,17.22
2023-01-08T10:04:01.440Z,17.26
2023-01-08T10:06:28.303Z,17.33
2023-01-08T10:08:55.559Z,17.34
2023-01-08T10:11:22.710Z,17.38
2023-01-08T10:13:49.116Z,17.42
2023-01-08T10:16:15.891Z,17.51
2023-01-08T10:18:42.371Z,17.61
2023-01-08T10:21:09.156Z,17.70
2023-01-08T10:23:35.774Z,17.82
2023-01-08T10:26:02.484Z,17.93
2023-01-08T10:28:28.989Z,17.92
2023-01-08T10:30:55.323Z,18.04
2023-01-08T10:33:22.218Z,18.15
2023-01-08T10:35:48.657Z,18.30
2023-01-08T10:38:15.378Z,18.37
2023-01-08T10:40:42.003Z,18.43
2023-01-08T10:43:08.306Z,18.47
2023-01-08T10:45:34.907Z,18.48
2023-01-08T10:48:01.557Z,18.55
2023-01-08T10:50:28.007Z,18.57
2023-01-08T10:52:54.429Z,18.62
2023-01-08T10:55:21.095Z,18.66
2023-01-08T10:57:47.807Z,18.69
2023-01-08T11:00:14.358Z,18.71
2023-01-08T11:02:40.711Z,18.72
2023-01-08T11:05:07.590Z,18.73
2023-01-08T11:07:34.134Z,18.75
2023-01-08T11:10:00.792Z,18.74
2023-01-08T11:12:27.155Z,18.73
2023-01-08T11:14:53.604Z,18.68
2023-01-08T11:17:19.974Z,18.69
2023-01-08T11:19:46.571Z,18.68
2023-01-08T11:22:13.298Z,18.71
2023-01-08T11:24:39.892Z,18.72
2023-01-08T11:27:06.320Z,18.76
2023-01-08T11:29:33.000Z,18.78
2023-01-08T11:31:59.528Z,18.83
2023-01-08T11:34:26.279Z,18.87
2023-01-08T11:36:53.095Z,18.89
2023-01-08T11:39:19.483Z,18.92
2023-01-08T11:41:46.230Z,18.94
2023-01-08T11:44:12.618Z,18.99
2023-01-08T11:46:39.537Z,19.01
2023-01-08T11:49:05.880Z,19.28
2023-01-08T11:51:32.610Z,19.29
2023-01-08T11:53:59.107Z,19.29
2023-01-08T11:56:25.490Z,19.30
2023-01-08T11:58:51.935Z,19.33
2023-01-08T12:01:18.550Z,19.34
2023-01-08T12:03:45.065Z,19.42
2023-01-08T12:06:11.428Z,19.48
2023-01-08T12:08:37.872Z,19.54
2023-01-08T12:11:04.891Z,19.58
2023-01-08T12:13:31.348Z,19.61
2023-01-08T12:15:57.969Z,19.65
2023-01-08T12:18:24.337Z,19.66
2023-01-08T12:20:50.751Z,19.68
2023-01-08T12:23:17.682Z,19.71
2023-01-08T12:25:44.250Z,19.72
2023-01-08T12:28:10.902Z,19.74
2023-01-08T12:30:37.590Z,19.78
2023-01-08T12:33:04.110Z,19.82
2023-01-08T12:35:30.688Z,19.85
2023-01-08T12:37:57.230Z,19.89
2023-01-08T12:40:24.042Z,19.93
2023-01-08T12:43:00.310Z,19.98
2023-01-08T12:45:27.482Z,19.96
2023-01-08T12:47:54.235Z,19.98
2023-01-08T12:50:20.755Z,19.99
2023-01-08T12:52:47.715Z,20.04
2023-01-08T12:55:14.206Z,20.04
2023-01-08T12:57:40.720Z,20.08
2023-01-08T13:00:07.232Z,20.09
2023-01-08T13:02:34.250Z,20.12
2023-01-08T13:05:00.644Z,20.12
2023-01-08T13:07:27.678Z,20.14
2023-01-08T13:09:54.095Z,20.14
2023-01-08T13:12:21.846Z,20.27
2023-01-08T13:14:49.846Z,20.32
2023-01-08T13:17:16.636Z,20.31
2023-01-08T13:19:43.472Z,20.28
2023-01-08T13:22:10.137Z,20.29
2023-01-08T13:24:39.152Z,20.29
2023-01-08T13:27:05.868Z,20.36
2023-01-08T13:29:32.785Z,20.38
2023-01-08T13:31:59.529Z,20.40
2023-01-08T13:34:25.992Z,20.41
2023-01-08T13:36:53.413Z,20.43
2023-01-08T13:42:07.560Z,20.44
2023-01-08T13:44:34.189Z,20.45
2023-01-08T13:47:00.754Z,20.49
2023-01-08T13:49:27.777Z,20.51
2023-01-08T13:51:54.335Z,20.54
2023-01-08T13:54:21.148Z,20.61
2023-01-08T13:56:48.708Z,20.73
2023-01-08T13:59:15.534Z,20.79
2023-01-08T14:01:43.552Z,20.85
2023-01-08T14:04:10.738Z,20.83
2023-01-08T14:06:37.363Z,20.69
2023-01-08T14:09:03.923Z,20.52
2023-01-08T14:11:30.945Z,20.48
2023-01-08T14:14:01.817Z,20.43
2023-01-08T14:16:28.803Z,20.38
2023-01-08T14:18:55.461Z,20.32
2023-01-08T14:21:22.479Z,20.27
2023-01-08T14:23:49.411Z,20.23
2023-01-08T14:26:16.274Z,20.19
2023-01-08T14:28:42.775Z,20.17
2023-01-08T14:31:09.684Z,20.12
2023-01-08T14:33:36.001Z,20.10
2023-01-08T14:36:02.346Z,20.06
2023-01-08T14:38:29.169Z,20.00
2023-01-08T14:40:55.528Z,19.98
2023-01-08T14:43:22.059Z,19.92
2023-01-08T14:45:48.841Z,19.87
2023-01-08T14:48:15.411Z,19.84
2023-01-08T14:50:41.845Z,19.79
2023-01-08T14:53:08.381Z,19.75
2023-01-08T14:55:35.220Z,19.70
2023-01-08T14:58:01.756Z,19.68
2023-01-08T15:00:28.389Z,19.63
2023-01-08T15:02:54.858Z,19.61
2023-01-08T15:05:21.850Z,19.56
2023-01-08T15:07:49.008Z,19.54
2023-01-08T15:10:15.601Z,19.49
2023-01-08T15:12:42.088Z,19.45
2023-01-08T15:15:09.048Z,19.41
2023-01-08T15:17:35.567Z,19.37
2023-01-08T15:20:02.022Z,19.33
2023-01-08T15:22:28.447Z,19.29
2023-01-08T15:24:55.474Z,19.26
2023-01-08T15:27:21.945Z,19.23
2023-01-08T15:29:48.372Z,19.20
2023-01-08T15:32:15.349Z,19.16
2023-01-08T15:34:41.747Z,19.12
2023-01-08T15:37:08.508Z,19.10
2023-01-08T15:39:35.019Z,19.07
2023-01-08T15:42:01.590Z,19.05
2023-01-08T15:44:28.035Z,19.03
2023-01-08T15:46:54.616Z,18.99
2023-01-08T15:49:21.078Z,18.96
2023-01-08T15:51:47.712Z,18.95
2023-01-08T15:54:14.601Z,18.92
2023-01-08T15:56:41.206Z,18.89
2023-01-08T15:59:07.835Z,18.86
2023-01-08T16:01:34.310Z,18.83
2023-01-08T16:04:00.839Z,18.80
2023-01-08T16:06:27.248Z,18.79
2023-01-08T16:08:53.701Z,18.76
2023-01-08T16:11:20.219Z,18.73
2023-01-08T16:13:46.673Z,18.70
2023-01-08T16:16:13.525Z,18.67
2023-01-08T16:18:40.051Z,18.65
2023-01-08T16:21:06.605Z,18.64
2023-01-08T16:23:33.128Z,18.61
2023-01-08T16:25:59.610Z,18.60
2023-01-08T16:28:25.964Z,18.58
2023-01-08T16:30:52.350Z,18.54
2023-01-08T16:33:18.723Z,18.52
2023-01-08T16:35:45.717Z,18.49
2023-01-08T16:38:12.147Z,18.48
2023-01-08T16:40:38.879Z,18.47
2023-01-08T16:43:05.300Z,18.43
2023-01-08T16:45:31.721Z,18.42
2023-01-08T16:47:58.103Z,18.38
2023-01-08T16:50:24.477Z,18.37
2023-01-08T16:52:51.574Z,18.36
2023-01-08T16:55:18.222Z,18.32
2023-01-08T16:57:44.607Z,18.31
2023-01-08T17:00:11.395Z,18.29
2023-01-08T17:02:38.174Z,18.27
2023-01-08T17:05:04.677Z,18.26
2023-01-08T17:07:31.588Z,18.23
2023-01-08T17:09:58.006Z,18.23
2023-01-08T17:12:24.523Z,18.19
2023-01-08T17:14:51.626Z,18.17
2023-01-08T17:17:18.200Z,18.15
2023-01-08T17:19:44.644Z,18.12
2023-01-08T17:22:10.993Z,18.10
2023-01-08T17:24:38.093Z,18.08
2023-01-08T17:27:04.805Z,18.04
2023-01-08T17:29:31.195Z,18.03
2023-01-08T17:31:57.787Z,18.02
2023-01-08T17:34:24.432Z,17.99
2023-01-08T17:36:50.845Z,17.98
2023-01-08T17:39:17.505Z,17.96
2023-01-08T17:41:44.181Z,17.96
2023-01-08T17:44:10.861Z,17.92
2023-01-08T17:46:37.284Z,17.93
2023-01-08T17:49:04.168Z,17.90
2023-01-08T17:51:31.086Z,17.86
2023-01-08T17:53:57.528Z,17.86
2023-01-08T17:56:24.192Z,17.83
2023-01-08T17:58:51.035Z,17.82
2023-01-08T18:01:17.611Z,17.80
2023-01-08T18:03:44.195Z,17.77
2023-01-08T18:06:10.956Z,17.76
2023-01-08T18:08:37.697Z,17.75
2023-01-08T18:11:04.180Z,17.74
2023-01-08T18:13:30.918Z,17.71
2023-01-08T18:15:58.209Z,17.71
2023-01-08T18:18:24.926Z,17.69
2023-01-08T18:20:53.872Z,17.68
2023-01-08T18:23:20.693Z,17.65
2023-01-08T18:25:47.445Z,17.65
2023-01-08T18:28:13.818Z,17.62
2023-01-08T18:30:40.508Z,17.63
2023-01-08T18:33:07.333Z,17.62
2023-01-08T18:35:33.684Z,17.59
2023-01-08T18:38:00.125Z,17.57
2023-01-08T18:40:26.860Z,17.58
2023-01-08T18:42:53.407Z,17.56
2023-01-08T18:45:19.899Z,17.53
2023-01-08T18:47:46.594Z,17.53
2023-01-08T18:50:13.086Z,17.51
2023-01-08T18:52:40.093Z,17.49
2023-01-08T18:55:07.058Z,17.47
2023-01-08T18:57:33.754Z,17.46
2023-01-08T19:00:00.355Z,17.45
2023-01-08T19:02:26.959Z,17.44
2023-01-08T19:04:53.579Z,17.43
2023-01-08T19:07:20.315Z,17.42
2023-01-08T19:09:47.209Z,17.39
2023-01-08T19:12:13.909Z,17.39
2023-01-08T19:14:40.942Z,17.37
2023-01-08T19:17:07.350Z,17.36
2023-01-08T19:19:34.827Z,17.34
2023-01-08T19:22:01.250Z,17.33
2023-01-08T19:24:27.610Z,17.32
2023-01-08T19:26:54.249Z,17.32
2023-01-08T19:29:20.630Z,17.31
2023-01-08T19:31:47.524Z,17.29
2023-01-08T19:34:14.104Z,17.28
2023-01-08T19:36:43.625Z,17.27
2023-01-08T19:39:10.346Z,17.27
2023-01-08T19:41:36.683Z,17.25
2023-01-08T19:44:03.950Z,17.23
2023-01-08T19:46:30.550Z,17.23
2023-01-08T19:48:57.098Z,17.20
2023-01-08T19:51:23.870Z,17.23
2023-01-08T19:53:50.434Z,17.20
2023-01-08T19:56:17.322Z,17.19
2023-01-08T19:58:43.775Z,17.21
2023-01-08T20:01:10.420Z,17.21
2023-01-08T20:03:37.263Z,17.18
2023-01-08T20:06:03.718Z,17.19
2023-01-08T20:08:30.110Z,17.16
2023-01-08T20:10:57.103Z,17.16
2023-01-08T20:13:23.486Z,17.13
2023-01-08T20:15:50.548Z,17.14
2023-01-08T20:18:17.267Z,17.11
2023-01-08T20:20:44.216Z,17.10
2023-01-08T20:23:10.640Z,17.13
2023-01-08T20:25:37.095Z,17.10
2023-01-08T20:28:03.921Z,17.10
2023-01-08T20:30:30.313Z,17.10
2023-01-08T20:32:57.206Z,17.10
2023-01-08T20:35:24.111Z,17.09
2023-01-08T20:37:50.980Z,17.06
2023-01-08T20:40:17.446Z,17.03
2023-01-08T20:42:44.045Z,17.04
2023-01-08T20:45:10.419Z,17.03
2023-01-08T20:47:37.022Z,17.02
2023-01-08T20:50:12.332Z,17.02
2023-01-08T20:52:45.975Z,17.01
2023-01-08T20:55:12.473Z,17.00
2023-01-08T20:57:39.639Z,16.98
2023-01-08T21:00:06.107Z,16.97
2023-01-08T21:02:32.858Z,16.94
2023-01-08T21:04:59.593Z,16.91
2023-01-08T21:07:26.028Z,16.93
2023-01-08T21:09:52.974Z,16.90
2023-01-08T21:12:19.404Z,16.91
2023-01-08T21:14:45.998Z,16.91
2023-01-08T21:17:12.478Z,16.90
2023-01-08T21:19:38.989Z,16.88
2023-01-08T21:22:05.533Z,16.87
2023-01-08T21:24:32.066Z,16.86
2023-01-08T21:26:58.569Z,16.85
2023-01-08T21:29:25.052Z,16.84
2023-01-08T21:31:51.493Z,16.84
2023-01-08T21:34:18.419Z,16.83
2023-01-08T21:36:45.262Z,16.82
2023-01-08T21:39:12.168Z,16.81
2023-01-08T21:41:38.647Z,16.81
2023-01-08T21:44:05.103Z,16.79
2023-01-08T21:46:31.807Z,16.80
2023-01-08T21:48:58.259Z,16.77
2023-01-08T21:51:25.393Z,16.78
2023-01-08T21:53:51.829Z,16.74
2023-01-08T21:56:18.473Z,16.75
2023-01-08T21:58:44.876Z,16.73
2023-01-08T22:01:11.384Z,16.73
2023-01-08T22:03:38.211Z,16.71
2023-01-08T22:06:04.634Z,16.70
2023-01-08T22:08:31.314Z,16.69
2023-01-08T22:10:57.991Z,16.68
2023-01-08T22:13:25.277Z,16.66
2023-01-08T22:15:52.378Z,16.66
2023-01-08T22:18:20.189Z,16.66
2023-01-08T22:20:46.817Z,16.64
2023-01-08T22:23:13.666Z,16.64
2023-01-08T22:25:40.076Z,16.64
2023-01-08T22:28:07.215Z,16.64
2023-01-08T22:30:34.187Z,16.62
2023-01-08T22:33:00.564Z,16.61
2023-01-08T22:35:27.650Z,16.61
2023-01-08T22:37:54.644Z,16.59
2023-01-08T22:40:21.883Z,16.59
2023-01-08T22:42:48.395Z,16.57
2023-01-08T22:45:15.148Z,16.56
2023-01-08T22:47:41.564Z,16.56
2023-01-08T22:50:08.296Z,16.55
2023-01-08T22:52:35.165Z,16.53
2023-01-08T22:55:01.681Z,16.54
2023-01-08T22:57:28.559Z,16.53
2023-01-08T22:59:55.018Z,16.53
2023-01-08T23:02:21.800Z,16.50
2023-01-08T23:04:48.293Z,16.51
2023-01-08T23:07:14.814Z,16.50
2023-01-08T23:09:41.435Z,16.49
2023-01-08T23:12:07.863Z,16.48
2023-01-08T23:14:34.755Z,16.48
2023-01-08T23:17:01.356Z,16.45
2023-01-08T23:19:28.342Z,16.45
2023-01-08T23:21:55.250Z,16.46
2023-01-08T23:24:21.623Z,16.45
2023-01-08T23:26:48.304Z,16.44
2023-01-08T23:29:14.911Z,16.42
2023-01-08T23:31:41.366Z,16.41
2023-01-08T23:34:08.837Z,16.41
2023-01-08T23:36:35.325Z,16.40
2023-01-08T23:39:01.795Z,16.41
2023-01-08T23:41:28.287Z,16.40
2023-01-08T23:43:54.866Z,16.40
2023-01-08T23:46:21.579Z,16.37
2023-01-08T23:48:48.232Z,16.37
2023-01-08T23:51:14.604Z,16.36
2023-01-08T23:53:41.274Z,16.36
2023-01-08T23:56:07.628Z,16.35
2023-01-08T23:58:34.075Z,16.36
